Latest Weather Observations for Brewon

IDN60801

Issued at 9:12 pm EST Wednesday 5 August 2020 (issued every 10 minutes, with the page automatically refreshed every 10 minutes)

About weather observations | Map of weather stations | Latest weather observations for NSW | Other Formats
Station Details ID: 051162 Name: BREWON AWS Lat: -30.24 Lon: 147.53 Height: 130.0 m
Data from the previous 72 hours. | See also: Recent months at Brewon
Date/Time
EST
Temp
°C
App
Temp
°C
Dew
Point
°C
Rel
Hum
%
Delta-T
°C
Wind Press
QNH
hPa
Press
MSL
hPa
Rain since
9am
mm
Dir  Spd
km/h
Gust
km/h
Spd
kts
Gust
kts
05/09:00pm 4.8 - -1.8 62 2.4 - - - - - - - 0.0
05/08:30pm 5.8 - -2.0 57 2.9 - - - - - - - 0.0
05/08:00pm 6.9 - -1.7 54 3.2 - - - - - - - 0.0
05/07:30pm 7.7 - -2.0 50 3.6 - - - - - - - 0.0
05/07:00pm 8.3 - -2.3 47 4.0 - - - - - - - 0.0
05/06:30pm 8.7 - -2.6 45 4.2 - - - - - - - 0.0
05/06:00pm 9.6 - -3.7 39 4.9 - - - - - - - 0.0
05/05:30pm 11.6 - -4.1 33 5.9 - - - - - - - 0.0
05/05:00pm 13.4 - -4.2 29 6.7 - - - - - - - 0.0
05/04:30pm 14.3 - -3.9 28 7.1 - - - - - - - 0.0
05/04:00pm 14.8 - -4.0 27 7.3 - - - - - - - 0.0
05/03:30pm 15.2 - -3.6 27 7.4 - - - - - - - 0.0
05/03:00pm 15.3 - -4.1 26 7.6 - - - - - - - 0.0
05/02:30pm 14.7 - -5.1 25 7.5 - - - - - - - 0.0
05/02:00pm 14.7 - -3.1 29 7.1 - - - - - - - 0.0
05/01:30pm 14.3 - -3.5 29 7.0 - - - - - - - 0.0
05/01:00pm 14.3 - -2.6 31 6.7 - - - - - - - 0.0
05/12:30pm 13.8 - -2.2 33 6.4 - - - - - - - 0.0
05/12:00pm 13.2 - -2.3 34 6.2 - - - - - - - 0.0
05/11:30am 13.0 - -1.3 37 5.8 - - - - - - - 0.0
05/11:00am 12.1 - 0.2 44 4.9 - - - - - - - 0.0
05/10:30am 11.1 - -0.4 45 4.7 - - - - - - - 0.0
05/10:00am 10.0 - -0.8 47 4.3 - - - - - - - 0.0
05/09:30am 9.6 - -0.3 50 4.0 - - - - - - - 0.0
05/09:00am 8.0 - 0.3 58 3.1 - - - - - - - 0.0
05/08:30am 6.1 - 0.6 68 2.2 - - - - - - - 0.0
05/08:00am 3.9 - 0.6 79 1.3 - - - - - - - 0.0
05/07:30am 1.5 - -0.9 84 0.9 - - - - - - - 0.0
05/07:00am 1.0 - -1.1 86 0.7 - - - - - - - 0.0
05/06:30am 0.3 - -1.9 85 0.8 - - - - - - - 0.0
05/06:00am 1.5 - -0.7 85 0.8 - - - - - - - 0.0
05/05:30am 0.9 - -1.0 87 0.7 - - - - - - - 0.0
05/05:00am 1.9 - -0.5 84 0.9 - - - - - - - 0.0
05/04:30am 2.4 - 0.1 85 0.9 - - - - - - - 0.0
05/04:00am 3.4 - 0.6 82 1.1 - - - - - - - 0.0
05/03:30am 3.8 - 1.2 83 1.0 - - - - - - - 0.0
05/03:00am 4.6 - 2.0 83 1.0 - - - - - - - 0.0
05/02:30am 4.6 - 2.9 89 0.7 - - - - - - - 0.0
05/02:00am 4.4 - 1.8 83 1.0 - - - - - - - 0.0
05/01:30am 6.0 - 3.2 82 1.2 - - - - - - - 0.0
05/01:00am 6.7 - 4.2 84 1.1 - - - - - - - 0.0
05/12:30am 6.9 - 4.6 85 1.0 - - - - - - - 0.0
05/12:00am 7.4 - 5.0 85 1.1 - - - - - - - 0.0
 
Date/Time
EST
Temp
°C
App
Temp
°C
Dew
Point
°C
Rel
Hum
%
Delta-T
°C
Wind Press
QNH
hPa
Press
MSL
hPa
Rain since
9am
mm
Dir  Spd
km/h
Gust
km/h
Spd
kts
Gust
kts
04/11:30pm 7.8 - 5.4 85 1.1 - - - - - - - 0.0
04/11:00pm 8.4 - 6.0 85 1.1 - - - - - - - 0.0
04/10:30pm 8.6 - 5.5 81 1.4 - - - - - - - 0.0
04/10:00pm 10.1 - 6.4 78 1.7 - - - - - - - 0.0
04/09:30pm 11.1 - 6.8 75 2.1 - - - - - - - 0.0
04/09:00pm 11.8 - 7.1 73 2.3 - - - - - - - 0.0
04/08:30pm 12.6 - 7.3 70 2.6 - - - - - - - 0.0
04/08:00pm 14.0 - 7.3 64 3.3 - - - - - - - 0.0
04/07:30pm 15.0 - 5.0 51 4.7 - - - - - - - 0.0
04/07:00pm 13.2 - -0.1 40 5.5 - - - - - - - 0.0
04/06:30pm 14.9 - 0.4 37 6.2 - - - - - - - 0.0
04/06:00pm 17.2 - 0.8 33 7.2 - - - - - - - 0.0
04/05:30pm 19.2 - 0.3 28 8.4 - - - - - - - 0.0
04/05:00pm 21.8 - 0.4 24 9.7 - - - - - - - 0.0
04/04:30pm 22.8 - -0.6 21 10.5 - - - - - - - 0.0
04/04:00pm 23.3 - -0.2 21 10.7 - - - - - - - 0.0
04/03:30pm 23.5 - -0.7 20 10.9 - - - - - - - 0.0
04/03:00pm 23.8 - -0.5 20 11.0 - - - - - - - 0.0
04/02:30pm 22.9 - -0.6 21 10.6 - - - - - - - 0.0
04/02:00pm 23.3 - -0.2 21 10.7 - - - - - - - 0.0
04/01:30pm 22.9 - 0.1 22 10.4 - - - - - - - 0.0
04/01:00pm 24.3 - 1.2 22 10.9 - - - - - - - 0.0
04/12:30pm 23.4 - 2.3 25 10.1 - - - - - - - 0.0
04/12:00pm 23.2 - 3.2 27 9.7 - - - - - - - 0.0
04/11:30am 22.1 - 3.7 30 8.9 - - - - - - - 0.0
04/11:00am 21.1 - 4.2 33 8.2 - - - - - - - 0.0
04/10:30am 19.9 - 4.4 36 7.5 - - - - - - - 0.0
04/10:00am 18.2 - 6.4 46 5.9 - - - - - - - 0.0
04/09:30am 15.9 - 6.1 52 4.8 - - - - - - - 0.0
04/09:00am 12.8 - 5.9 63 3.3 - - - - - - - 0.0
04/08:30am 9.9 - 6.1 77 1.8 - - - - - - - 0.0
04/08:00am 6.8 - 4.8 87 0.9 - - - - - - - 0.0
04/07:30am 3.5 - 2.6 94 0.4 - - - - - - - 0.0
04/07:00am 3.1 - 1.9 92 0.5 - - - - - - - 0.0
04/06:30am 4.0 - 2.7 91 0.5 - - - - - - - 0.0
04/06:00am 4.1 - 3.1 93 0.4 - - - - - - - 0.0
04/05:30am 4.5 - 3.6 94 0.4 - - - - - - - 0.0
04/05:00am 3.5 - 3.2 98 0.1 - - - - - - - 0.0
04/04:30am 3.2 - 2.8 97 0.2 - - - - - - - 0.0
04/04:00am 3.0 - 2.3 95 0.3 - - - - - - - 0.0
04/03:30am 2.8 - 1.6 92 0.5 - - - - - - - 0.0
04/03:00am 3.5 - 2.5 93 0.4 - - - - - - - 0.0
04/02:30am 3.3 - 1.8 90 0.6 - - - - - - - 0.0
04/02:00am 4.2 - 2.2 87 0.8 - - - - - - - 0.0
04/01:30am 5.2 - 2.6 83 1.1 - - - - - - - 0.0
04/01:00am 4.9 - 2.1 82 1.1 - - - - - - - 0.0
04/12:30am 7.8 - 3.8 76 1.7 - - - - - - - 0.0
04/12:00am 7.4 - 3.5 76 1.7 - - - - - - - 0.0
 
Date/Time
EST
Temp
°C
App
Temp
°C
Dew
Point
°C
Rel
Hum
%
Delta-T
°C
Wind Press
QNH
hPa
Press
MSL
hPa
Rain since
9am
mm
Dir  Spd
km/h
Gust
km/h
Spd
kts
Gust
kts
03/11:30pm 8.2 - 3.9 74 1.9 - - - - - - - 0.0
03/11:00pm 7.4 - 4.0 79 1.5 - - - - - - - 0.0
03/10:30pm 7.2 - 3.8 79 1.5 - - - - - - - 0.0
03/10:00pm 7.3 - 3.7 78 1.5 - - - - - - - 0.0
03/09:30pm 6.7 - 2.2 73 1.9 - - - - - - - 0.0
03/09:00pm 9.0 - 3.8 70 2.3 - - - - - - - 0.0
03/08:30pm 9.0 - 3.2 67 2.5 - - - - - - - 0.0
03/08:00pm 10.4 - 3.2 61 3.2 - - - - - - - 0.0
03/07:30pm 11.4 - 3.2 57 3.6 - - - - - - - 0.0
03/07:00pm 12.1 - 3.3 55 3.9 - - - - - - - 0.0
03/06:30pm 14.9 - 3.7 47 5.2 - - - - - - - 0.0
03/06:00pm 15.9 - 3.0 42 5.9 - - - - - - - 0.0
03/05:30pm 18.6 - 1.6 32 7.7 - - - - - - - 0.0
03/05:00pm 21.6 - 2.8 29 8.9 - - - - - - - 0.0
03/04:30pm 21.2 - 2.5 29 8.8 - - - - - - - 0.0
03/04:00pm 22.1 - 2.2 27 9.4 - - - - - - - 0.0
03/03:30pm 22.2 - 2.3 27 9.4 - - - - - - - 0.0
03/03:00pm 22.0 - 2.2 27 9.3 - - - - - - - 0.0
03/02:30pm 22.2 - 3.3 29 9.1 - - - - - - - 0.0
03/02:00pm 21.9 - 2.1 27 9.3 - - - - - - - 0.0
03/01:30pm 21.7 - 4.7 33 8.4 - - - - - - - 0.0
03/01:00pm 21.4 - 4.5 33 8.3 - - - - - - - 0.0
03/12:30pm 20.8 - 5.2 36 7.7 - - - - - - - 0.0
03/12:00pm 20.5 - 6.5 40 7.1 - - - - - - - 0.0
03/11:30am 19.3 - 7.1 45 6.2 - - - - - - - 0.0
03/11:00am 18.6 - 6.1 44 6.2 - - - - - - - 0.0
03/10:30am 17.8 - 6.3 47 5.7 - - - - - - - 0.0
03/10:00am 16.6 - 7.0 53 4.8 - - - - - - - 0.0
03/09:30am 13.9 - 7.4 65 3.2 - - - - - - - 0.0
03/09:00am 11.2 - 7.7 79 1.7 - - - - - - - 0.0
03/08:30am 8.5 - 8.5 100 0.0 - - - - - - - 0.0
03/08:00am 5.4 - 5.4 100 0.0 - - - - - - - 0.0
03/07:30am 0.4 - 0.3 99 0.0 - - - - - - - 0.0
03/07:00am -0.1 - -0.2 99 0.0 - - - - - - - 0.0
03/06:30am -0.6 - -0.7 99 0.0 - - - - - - - 0.0
03/06:00am -0.4 - -0.5 99 0.0 - - - - - - - 0.0
03/05:30am 0.6 - 0.5 99 0.0 - - - - - - - 0.0
03/05:00am 0.4 - 0.3 99 0.0 - - - - - - - 0.0
03/04:30am 1.6 - 1.5 99 0.0 - - - - - - - 0.0
03/04:00am 1.9 - 1.8 99 0.0 - - - - - - - 0.0
03/03:30am 1.3 - 1.0 98 0.1 - - - - - - - 0.0
03/03:00am 2.6 - 2.5 99 0.0 - - - - - - - 0.0
03/02:30am 2.5 - 1.9 96 0.2 - - - - - - - 0.0
03/02:00am 3.3 - 2.3 93 0.4 - - - - - - - 0.0
03/01:30am 4.5 - 3.9 96 0.3 - - - - - - - 0.0
03/01:00am 3.7 - 3.0 95 0.3 - - - - - - - 0.0
03/12:30am 3.9 - 3.2 95 0.3 - - - - - - - 0.0
03/12:00am 3.4 - 2.1 91 0.5 - - - - - - - 0.0
 
Date/Time
EST
Temp
°C
App
Temp
°C
Dew
Point
°C
Rel
Hum
%
Delta-T
°C
Wind Press
QNH
hPa
Press
MSL
hPa
Rain since
9am
mm
Dir  Spd
km/h
Gust
km/h
Spd
kts
Gust
kts
02/11:30pm 5.4 - 3.9 90 0.6 - - - - - - - 0.0
02/11:00pm 6.2 - 4.2 87 0.9 - - - - - - - 0.0
02/10:30pm 6.6 - 3.8 82 1.2 - - - - - - - 0.0
02/10:00pm 7.3 - 5.1 86 1.0 - - - - - - - 0.0
02/09:30pm 7.4 - 4.0 79 1.5 - - - - - - - 0.0

Other formats

Comma delimited format used in spreadsheet applications
http://www.bom.gov.au/fwo/IDN60801/IDN60801.94793.axf

JavaScript Object Notation format (JSON) in row-major order
http://www.bom.gov.au/fwo/IDN60801/IDN60801.94793.json

Data quality

Most of these data are generated automatically and are frequently updated. Quality checks on data are not normally performed. It is possible for incorrect values to appear. Refer to information at About Latest Weather Observations and please check the disclaimer before using these data.